sensor_id;sensor_type;location;lat;lon;timestamp;temperature;humidity
48535;DHT22;34323;52.022;5.686;2023-07-31T00:01:45;20.90;99.90
48535;DHT22;34323;52.022;5.686;2023-07-31T00:04:10;21.10;99.90
48535;DHT22;34323;52.022;5.686;2023-07-31T00:06:36;21.20;99.90
48535;DHT22;34323;52.022;5.686;2023-07-31T00:09:01;21.00;99.90
48535;DHT22;34323;52.022;5.686;2023-07-31T00:11:27;20.90;99.90
48535;DHT22;34323;52.022;5.686;2023-07-31T00:13:53;21.10;99.90
48535;DHT22;34323;52.022;5.686;2023-07-31T00:16:19;21.20;99.90
48535;DHT22;34323;52.022;5.686;2023-07-31T00:18:44;21.40;99.90
48535;DHT22;34323;52.022;5.686;2023-07-31T00:21:10;21.60;99.90
48535;DHT22;34323;52.022;5.686;2023-07-31T00:23:36;21.70;99.90
48535;DHT22;34323;52.022;5.686;2023-07-31T00:26:01;21.70;99.90
48535;DHT22;34323;52.022;5.686;2023-07-31T00:28:27;21.00;99.90
48535;DHT22;34323;52.022;5.686;2023-07-31T00:30:54;20.90;99.90
48535;DHT22;34323;52.022;5.686;2023-07-31T00:33:19;20.70;99.90
48535;DHT22;34323;52.022;5.686;2023-07-31T00:35:45;20.90;99.90
48535;DHT22;34323;52.022;5.686;2023-07-31T00:38:10;20.90;99.90
48535;DHT22;34323;52.022;5.686;2023-07-31T00:40:36;20.60;99.90
48535;DHT22;34323;52.022;5.686;2023-07-31T00:43:03;20.50;99.90
48535;DHT22;34323;52.022;5.686;2023-07-31T00:45:29;20.80;99.90
48535;DHT22;34323;52.022;5.686;2023-07-31T00:47:54;21.00;99.90
48535;DHT22;34323;52.022;5.686;2023-07-31T00:50:22;21.20;99.90
48535;DHT22;34323;52.022;5.686;2023-07-31T00:52:49;21.30;99.90
48535;DHT22;34323;52.022;5.686;2023-07-31T00:55:15;21.40;99.90
48535;DHT22;34323;52.022;5.686;2023-07-31T00:57:41;21.50;99.90
48535;DHT22;34323;52.022;5.686;2023-07-31T01:00:07;21.10;99.90
48535;DHT22;34323;52.022;5.686;2023-07-31T01:02:33;21.20;99.90
48535;DHT22;34323;52.022;5.686;2023-07-31T01:04:59;21.40;99.90
48535;DHT22;34323;52.022;5.686;2023-07-31T01:07:35;21.30;99.90
48535;DHT22;34323;52.022;5.686;2023-07-31T01:10:26;21.10;99.90
48535;DHT22;34323;52.022;5.686;2023-07-31T01:12:53;21.10;99.90
48535;DHT22;34323;52.022;5.686;2023-07-31T01:15:19;21.20;99.90
48535;DHT22;34323;52.022;5.686;2023-07-31T01:17:46;21.30;99.90
48535;DHT22;34323;52.022;5.686;2023-07-31T01:20:18;20.90;99.90
48535;DHT22;34323;52.022;5.686;2023-07-31T01:25:26;21.10;99.90
48535;DHT22;34323;52.022;5.686;2023-07-31T01:28:02;21.20;99.90
48535;DHT22;34323;52.022;5.686;2023-07-31T01:30:33;21.30;99.90
48535;DHT22;34323;52.022;5.686;2023-07-31T01:33:01;21.10;99.90
48535;DHT22;34323;52.022;5.686;2023-07-31T01:35:35;20.70;99.90
48535;DHT22;34323;52.022;5.686;2023-07-31T01:38:01;20.40;99.90
48535;DHT22;34323;52.022;5.686;2023-07-31T01:40:26;20.60;99.90
48535;DHT22;34323;52.022;5.686;2023-07-31T01:42:52;21.00;99.90
48535;DHT22;34323;52.022;5.686;2023-07-31T01:45:17;21.20;99.90
48535;DHT22;34323;52.022;5.686;2023-07-31T01:47:43;21.30;99.90
48535;DHT22;34323;52.022;5.686;2023-07-31T01:50:09;21.30;99.90
48535;DHT22;34323;52.022;5.686;2023-07-31T01:52:35;21.50;99.90
48535;DHT22;34323;52.022;5.686;2023-07-31T01:55:00;21.60;99.90
48535;DHT22;34323;52.022;5.686;2023-07-31T01:57:26;21.30;99.90
48535;DHT22;34323;52.022;5.686;2023-07-31T01:59:51;21.00;99.90
48535;DHT22;34323;52.022;5.686;2023-07-31T02:02:19;21.00;99.90
48535;DHT22;34323;52.022;5.686;2023-07-31T02:04:44;20.70;99.90
48535;DHT22;34323;52.022;5.686;2023-07-31T02:07:10;20.80;99.90
48535;DHT22;34323;52.022;5.686;2023-07-31T02:09:36;20.60;99.90
48535;DHT22;34323;52.022;5.686;2023-07-31T02:12:01;20.40;99.90
48535;DHT22;34323;52.022;5.686;2023-07-31T02:14:27;20.50;99.90
48535;DHT22;34323;52.022;5.686;2023-07-31T02:16:52;20.70;99.90
48535;DHT22;34323;52.022;5.686;2023-07-31T02:19:18;20.80;99.90
48535;DHT22;34323;52.022;5.686;2023-07-31T02:21:44;21.00;99.90
48535;DHT22;34323;52.022;5.686;2023-07-31T02:24:09;20.80;99.90
48535;DHT22;34323;52.022;5.686;2023-07-31T02:26:35;21.10;99.90
48535;DHT22;34323;52.022;5.686;2023-07-31T02:29:01;21.40;99.90
48535;DHT22;34323;52.022;5.686;2023-07-31T02:31:26;21.40;99.90
48535;DHT22;34323;52.022;5.686;2023-07-31T02:33:52;21.60;99.90
48535;DHT22;34323;52.022;5.686;2023-07-31T02:36:17;21.70;99.90
48535;DHT22;34323;52.022;5.686;2023-07-31T02:38:43;21.40;99.90
48535;DHT22;34323;52.022;5.686;2023-07-31T02:41:08;21.40;99.90
48535;DHT22;34323;52.022;5.686;2023-07-31T02:43:34;21.40;99.90
48535;DHT22;34323;52.022;5.686;2023-07-31T02:46:00;21.50;99.90
48535;DHT22;34323;52.022;5.686;2023-07-31T02:48:25;21.40;99.90
48535;DHT22;34323;52.022;5.686;2023-07-31T02:50:51;21.40;99.90
48535;DHT22;34323;52.022;5.686;2023-07-31T02:53:16;21.70;99.90
48535;DHT22;34323;52.022;5.686;2023-07-31T02:55:42;21.90;99.90
48535;DHT22;34323;52.022;5.686;2023-07-31T02:58:07;21.80;99.90
48535;DHT22;34323;52.022;5.686;2023-07-31T03:00:33;21.50;99.90
48535;DHT22;34323;52.022;5.686;2023-07-31T03:02:58;21.50;99.90
48535;DHT22;34323;52.022;5.686;2023-07-31T03:05:24;21.20;99.90
48535;DHT22;34323;52.022;5.686;2023-07-31T03:07:49;20.90;99.90
48535;DHT22;34323;52.022;5.686;2023-07-31T03:10:15;21.10;99.90
48535;DHT22;34323;52.022;5.686;2023-07-31T03:12:41;21.10;99.90
48535;DHT22;34323;52.022;5.686;2023-07-31T03:15:07;21.20;99.90
48535;DHT22;34323;52.022;5.686;2023-07-31T03:17:32;20.90;99.90
48535;DHT22;34323;52.022;5.686;2023-07-31T03:19:58;20.80;99.90
48535;DHT22;34323;52.022;5.686;2023-07-31T03:22:23;20.80;99.90
48535;DHT22;34323;52.022;5.686;2023-07-31T03:24:49;20.70;99.90
48535;DHT22;34323;52.022;5.686;2023-07-31T03:27:15;20.70;99.90
48535;DHT22;34323;52.022;5.686;2023-07-31T03:29:40;20.80;99.90
48535;DHT22;34323;52.022;5.686;2023-07-31T03:32:06;20.90;99.90
48535;DHT22;34323;52.022;5.686;2023-07-31T03:34:32;21.10;99.90
48535;DHT22;34323;52.022;5.686;2023-07-31T03:36:58;21.40;99.90
48535;DHT22;34323;52.022;5.686;2023-07-31T03:39:24;21.30;99.90
48535;DHT22;34323;52.022;5.686;2023-07-31T03:41:49;20.80;99.90
48535;DHT22;34323;52.022;5.686;2023-07-31T03:44:15;20.50;99.90
48535;DHT22;34323;52.022;5.686;2023-07-31T03:46:40;20.80;99.90
48535;DHT22;34323;52.022;5.686;2023-07-31T03:49:06;21.10;99.90
48535;DHT22;34323;52.022;5.686;2023-07-31T03:51:31;21.10;99.90
48535;DHT22;34323;52.022;5.686;2023-07-31T03:53:57;21.10;99.90
48535;DHT22;34323;52.022;5.686;2023-07-31T03:56:22;21.10;99.90
48535;DHT22;34323;52.022;5.686;2023-07-31T03:58:48;21.30;99.90
48535;DHT22;34323;52.022;5.686;2023-07-31T04:01:13;21.30;99.90
48535;DHT22;34323;52.022;5.686;2023-07-31T04:03:39;21.30;99.90
48535;DHT22;34323;52.022;5.686;2023-07-31T04:06:05;21.50;99.90
48535;DHT22;34323;52.022;5.686;2023-07-31T04:08:32;21.50;99.90
48535;DHT22;34323;52.022;5.686;2023-07-31T04:10:57;21.50;99.90
48535;DHT22;34323;52.022;5.686;2023-07-31T04:13:23;21.70;99.90
48535;DHT22;34323;52.022;5.686;2023-07-31T04:15:49;21.10;99.90
48535;DHT22;34323;52.022;5.686;2023-07-31T04:18:18;21.00;99.90
48535;DHT22;34323;52.022;5.686;2023-07-31T04:20:44;21.20;99.90
48535;DHT22;34323;52.022;5.686;2023-07-31T04:23:09;21.10;99.90
48535;DHT22;34323;52.022;5.686;2023-07-31T04:25:35;20.90;99.90
48535;DHT22;34323;52.022;5.686;2023-07-31T04:28:01;21.10;99.90
48535;DHT22;34323;52.022;5.686;2023-07-31T04:30:26;21.40;99.90
48535;DHT22;34323;52.022;5.686;2023-07-31T04:32:52;21.50;99.90
48535;DHT22;34323;52.022;5.686;2023-07-31T04:35:17;21.70;99.90
48535;DHT22;34323;52.022;5.686;2023-07-31T04:37:43;21.70;99.90
48535;DHT22;34323;52.022;5.686;2023-07-31T04:40:10;21.90;99.90
48535;DHT22;34323;52.022;5.686;2023-07-31T04:42:36;22.00;99.90
48535;DHT22;34323;52.022;5.686;2023-07-31T04:45:01;21.80;99.90
48535;DHT22;34323;52.022;5.686;2023-07-31T04:47:27;21.50;99.90
48535;DHT22;34323;52.022;5.686;2023-07-31T04:49:52;21.50;99.90
48535;DHT22;34323;52.022;5.686;2023-07-31T04:52:18;21.40;99.90
48535;DHT22;34323;52.022;5.686;2023-07-31T04:54:43;21.20;99.90
48535;DHT22;34323;52.022;5.686;2023-07-31T04:57:09;20.90;99.90
48535;DHT22;34323;52.022;5.686;2023-07-31T04:59:34;21.30;99.90
48535;DHT22;34323;52.022;5.686;2023-07-31T05:02:00;21.30;99.90
48535;DHT22;34323;52.022;5.686;2023-07-31T05:04:25;21.10;99.90
48535;DHT22;34323;52.022;5.686;2023-07-31T05:06:51;20.90;99.90
48535;DHT22;34323;52.022;5.686;2023-07-31T05:09:16;21.10;99.90
48535;DHT22;34323;52.022;5.686;2023-07-31T05:11:42;20.90;99.90
48535;DHT22;34323;52.022;5.686;2023-07-31T05:14:08;21.00;99.90
48535;DHT22;34323;52.022;5.686;2023-07-31T05:16:34;21.20;99.90
48535;DHT22;34323;52.022;5.686;2023-07-31T05:18:59;20.80;99.90
48535;DHT22;34323;52.022;5.686;2023-07-31T05:21:25;20.60;99.90
48535;DHT22;34323;52.022;5.686;2023-07-31T05:23:50;20.60;99.90
48535;DHT22;34323;52.022;5.686;2023-07-31T05:26:16;20.40;99.90
48535;DHT22;34323;52.022;5.686;2023-07-31T05:28:42;20.60;99.90
48535;DHT22;34323;52.022;5.686;2023-07-31T05:31:07;20.60;99.90
48535;DHT22;34323;52.022;5.686;2023-07-31T05:33:33;20.90;99.90
48535;DHT22;34323;52.022;5.686;2023-07-31T05:35:59;21.20;99.90
48535;DHT22;34323;52.022;5.686;2023-07-31T05:38:24;21.30;99.90
48535;DHT22;34323;52.022;5.686;2023-07-31T05:40:50;21.50;99.90
48535;DHT22;34323;52.022;5.686;2023-07-31T05:43:15;21.20;99.90
48535;DHT22;34323;52.022;5.686;2023-07-31T05:45:44;21.30;99.90
48535;DHT22;34323;52.022;5.686;2023-07-31T05:48:10;21.30;99.90
48535;DHT22;34323;52.022;5.686;2023-07-31T05:50:35;21.40;99.90
48535;DHT22;34323;52.022;5.686;2023-07-31T05:53:02;21.40;99.90
48535;DHT22;34323;52.022;5.686;2023-07-31T05:55:28;21.20;99.90
48535;DHT22;34323;52.022;5.686;2023-07-31T05:57:53;20.70;99.90
48535;DHT22;34323;52.022;5.686;2023-07-31T06:00:19;20.40;99.90
48535;DHT22;34323;52.022;5.686;2023-07-31T06:02:47;20.40;99.90
48535;DHT22;34323;52.022;5.686;2023-07-31T06:05:13;20.40;99.90
48535;DHT22;34323;52.022;5.686;2023-07-31T06:07:38;20.40;99.90
48535;DHT22;34323;52.022;5.686;2023-07-31T06:10:04;20.40;99.90
48535;DHT22;34323;52.022;5.686;2023-07-31T06:12:34;20.40;99.90
48535;DHT22;34323;52.022;5.686;2023-07-31T06:15:01;20.50;99.90
48535;DHT22;34323;52.022;5.686;2023-07-31T06:17:27;20.80;99.90
48535;DHT22;34323;52.022;5.686;2023-07-31T06:19:53;20.90;99.90
48535;DHT22;34323;52.022;5.686;2023-07-31T06:22:19;21.00;99.90
48535;DHT22;34323;52.022;5.686;2023-07-31T06:24:44;21.00;99.90
48535;DHT22;34323;52.022;5.686;2023-07-31T06:27:10;20.90;99.90
48535;DHT22;34323;52.022;5.686;2023-07-31T06:29:36;20.50;99.90
48535;DHT22;34323;52.022;5.686;2023-07-31T06:32:02;20.70;99.90
48535;DHT22;34323;52.022;5.686;2023-07-31T06:34:27;20.60;99.90
48535;DHT22;34323;52.022;5.686;2023-07-31T06:36:53;20.70;99.90
48535;DHT22;34323;52.022;5.686;2023-07-31T06:39:18;20.50;99.90
48535;DHT22;34323;52.022;5.686;2023-07-31T06:41:44;20.40;99.90
48535;DHT22;34323;52.022;5.686;2023-07-31T06:44:10;20.40;99.90
48535;DHT22;34323;52.022;5.686;2023-07-31T06:46:35;20.50;99.90
48535;DHT22;34323;52.022;5.686;2023-07-31T06:49:01;20.40;99.90
48535;DHT22;34323;52.022;5.686;2023-07-31T06:51:26;20.20;99.90
48535;DHT22;34323;52.022;5.686;2023-07-31T06:53:52;20.00;99.90
48535;DHT22;34323;52.022;5.686;2023-07-31T06:56:17;20.20;99.90
48535;DHT22;34323;52.022;5.686;2023-07-31T06:58:43;20.20;99.90
48535;DHT22;34323;52.022;5.686;2023-07-31T07:01:08;20.10;99.90
48535;DHT22;34323;52.022;5.686;2023-07-31T07:03:34;20.10;99.90
48535;DHT22;34323;52.022;5.686;2023-07-31T07:06:00;20.40;99.90
48535;DHT22;34323;52.022;5.686;2023-07-31T07:08:26;20.60;99.90
48535;DHT22;34323;52.022;5.686;2023-07-31T07:10:51;20.50;99.90
48535;DHT22;34323;52.022;5.686;2023-07-31T07:13:17;20.90;99.90
48535;DHT22;34323;52.022;5.686;2023-07-31T07:15:47;20.90;99.90
48535;DHT22;34323;52.022;5.686;2023-07-31T07:18:13;20.70;99.90
48535;DHT22;34323;52.022;5.686;2023-07-31T07:20:39;20.60;99.90
48535;DHT22;34323;52.022;5.686;2023-07-31T07:23:05;20.60;99.90
48535;DHT22;34323;52.022;5.686;2023-07-31T07:25:31;20.70;99.90
48535;DHT22;34323;52.022;5.686;2023-07-31T07:27:57;20.40;99.90
48535;DHT22;34323;52.022;5.686;2023-07-31T07:30:22;20.60;99.90
48535;DHT22;34323;52.022;5.686;2023-07-31T07:32:50;20.80;99.90
48535;DHT22;34323;52.022;5.686;2023-07-31T07:35:15;20.70;99.90
48535;DHT22;34323;52.022;5.686;2023-07-31T07:37:41;20.70;99.90
48535;DHT22;34323;52.022;5.686;2023-07-31T07:40:07;20.50;99.90
48535;DHT22;34323;52.022;5.686;2023-07-31T07:42:33;20.70;99.90
48535;DHT22;34323;52.022;5.686;2023-07-31T07:44:58;20.40;99.90
48535;DHT22;34323;52.022;5.686;2023-07-31T07:47:24;20.60;99.90
48535;DHT22;34323;52.022;5.686;2023-07-31T07:49:49;21.00;99.90
48535;DHT22;34323;52.022;5.686;2023-07-31T07:52:15;20.50;99.90
48535;DHT22;34323;52.022;5.686;2023-07-31T07:54:40;20.10;99.90
48535;DHT22;34323;52.022;5.686;2023-07-31T07:57:06;20.00;99.90
48535;DHT22;34323;52.022;5.686;2023-07-31T07:59:32;20.30;99.90
48535;DHT22;34323;52.022;5.686;2023-07-31T08:01:57;20.40;99.90
48535;DHT22;34323;52.022;5.686;2023-07-31T08:04:23;20.50;99.90
48535;DHT22;34323;52.022;5.686;2023-07-31T08:06:48;20.60;99.90
48535;DHT22;34323;52.022;5.686;2023-07-31T08:09:14;20.80;99.90
48535;DHT22;34323;52.022;5.686;2023-07-31T08:11:39;20.70;99.90
48535;DHT22;34323;52.022;5.686;2023-07-31T08:14:05;20.90;99.90
48535;DHT22;34323;52.022;5.686;2023-07-31T08:16:31;21.10;99.90
48535;DHT22;34323;52.022;5.686;2023-07-31T08:18:56;20.90;99.90
48535;DHT22;34323;52.022;5.686;2023-07-31T08:21:22;21.10;99.90
48535;DHT22;34323;52.022;5.686;2023-07-31T08:23:48;21.20;99.90
48535;DHT22;34323;52.022;5.686;2023-07-31T08:26:20;21.00;99.90
48535;DHT22;34323;52.022;5.686;2023-07-31T08:28:46;21.20;99.90
48535;DHT22;34323;52.022;5.686;2023-07-31T08:31:11;21.10;99.90
48535;DHT22;34323;52.022;5.686;2023-07-31T08:33:38;21.10;99.90
48535;DHT22;34323;52.022;5.686;2023-07-31T08:36:04;20.90;99.90
48535;DHT22;34323;52.022;5.686;2023-07-31T08:38:30;21.00;99.90
48535;DHT22;34323;52.022;5.686;2023-07-31T08:40:59;21.10;99.90
48535;DHT22;34323;52.022;5.686;2023-07-31T08:43:26;21.30;99.90
48535;DHT22;34323;52.022;5.686;2023-07-31T08:45:52;21.30;99.90
48535;DHT22;34323;52.022;5.686;2023-07-31T08:48:20;21.10;99.90
48535;DHT22;34323;52.022;5.686;2023-07-31T08:50:46;21.00;99.90
48535;DHT22;34323;52.022;5.686;2023-07-31T08:53:11;20.90;99.90
48535;DHT22;34323;52.022;5.686;2023-07-31T08:55:38;20.70;99.90
48535;DHT22;34323;52.022;5.686;2023-07-31T08:58:04;20.90;99.90
48535;DHT22;34323;52.022;5.686;2023-07-31T09:00:31;20.90;99.90
48535;DHT22;34323;52.022;5.686;2023-07-31T09:05:33;21.30;99.90
48535;DHT22;34323;52.022;5.686;2023-07-31T09:08:00;21.50;99.90
48535;DHT22;34323;52.022;5.686;2023-07-31T09:10:27;21.40;99.90
48535;DHT22;34323;52.022;5.686;2023-07-31T09:12:52;21.30;99.90
48535;DHT22;34323;52.022;5.686;2023-07-31T09:15:18;21.50;99.90
48535;DHT22;34323;52.022;5.686;2023-07-31T09:17:44;21.50;99.90
48535;DHT22;34323;52.022;5.686;2023-07-31T09:20:18;21.30;99.90
48535;DHT22;34323;52.022;5.686;2023-07-31T09:22:45;21.10;99.90
48535;DHT22;34323;52.022;5.686;2023-07-31T09:25:17;20.90;99.90
48535;DHT22;34323;52.022;5.686;2023-07-31T09:27:48;20.60;99.90
48535;DHT22;34323;52.022;5.686;2023-07-31T09:30:14;20.70;99.90
48535;DHT22;34323;52.022;5.686;2023-07-31T09:32:40;21.00;99.90
48535;DHT22;34323;52.022;5.686;2023-07-31T09:35:20;20.70;99.90
48535;DHT22;34323;52.022;5.686;2023-07-31T09:37:50;20.80;99.90
48535;DHT22;34323;52.022;5.686;2023-07-31T09:40:30;21.00;99.90
48535;DHT22;34323;52.022;5.686;2023-07-31T09:42:57;21.00;99.90
48535;DHT22;34323;52.022;5.686;2023-07-31T09:45:24;21.30;99.90
48535;DHT22;34323;52.022;5.686;2023-07-31T09:47:50;21.20;99.90
48535;DHT22;34323;52.022;5.686;2023-07-31T09:50:15;21.50;99.90
48535;DHT22;34323;52.022;5.686;2023-07-31T09:52:41;21.80;99.90
48535;DHT22;34323;52.022;5.686;2023-07-31T09:55:10;21.70;99.90
48535;DHT22;34323;52.022;5.686;2023-07-31T09:57:40;21.40;99.90
48535;DHT22;34323;52.022;5.686;2023-07-31T10:00:07;21.40;99.90
48535;DHT22;34323;52.022;5.686;2023-07-31T10:02:35;21.50;99.90
48535;DHT22;34323;52.022;5.686;2023-07-31T10:05:03;21.80;99.90
48535;DHT22;34323;52.022;5.686;2023-07-31T10:07:30;21.50;99.90
48535;DHT22;34323;52.022;5.686;2023-07-31T10:09:58;21.20;99.90
48535;DHT22;34323;52.022;5.686;2023-07-31T10:12:26;21.40;99.90
48535;DHT22;34323;52.022;5.686;2023-07-31T10:14:54;21.40;99.90
48535;DHT22;34323;52.022;5.686;2023-07-31T10:17:21;21.50;99.90
48535;DHT22;34323;52.022;5.686;2023-07-31T10:19:49;21.80;99.90
48535;DHT22;34323;52.022;5.686;2023-07-31T10:22:15;21.60;99.90
48535;DHT22;34323;52.022;5.686;2023-07-31T10:24:42;21.80;99.90
48535;DHT22;34323;52.022;5.686;2023-07-31T10:27:09;21.70;99.90
48535;DHT22;34323;52.022;5.686;2023-07-31T10:29:36;21.40;99.90
48535;DHT22;34323;52.022;5.686;2023-07-31T10:32:04;21.40;99.90
48535;DHT22;34323;52.022;5.686;2023-07-31T10:34:36;21.60;99.90
48535;DHT22;34323;52.022;5.686;2023-07-31T10:40:03;21.60;99.90
48535;DHT22;34323;52.022;5.686;2023-07-31T10:42:35;21.60;99.90
48535;DHT22;34323;52.022;5.686;2023-07-31T10:45:06;21.80;99.90
48535;DHT22;34323;52.022;5.686;2023-07-31T10:47:37;22.30;99.90
48535;DHT22;34323;52.022;5.686;2023-07-31T10:50:21;22.70;99.90
48535;DHT22;34323;52.022;5.686;2023-07-31T10:52:48;22.50;99.90
48535;DHT22;34323;52.022;5.686;2023-07-31T10:57:50;22.10;99.90
48535;DHT22;34323;52.022;5.686;2023-07-31T11:00:24;22.10;99.90
48535;DHT22;34323;52.022;5.686;2023-07-31T11:08:25;22.50;99.90
48535;DHT22;34323;52.022;5.686;2023-07-31T11:11:08;22.30;99.90
48535;DHT22;34323;52.022;5.686;2023-07-31T11:13:41;22.50;99.90
48535;DHT22;34323;52.022;5.686;2023-07-31T11:16:07;22.70;99.90
48535;DHT22;34323;52.022;5.686;2023-07-31T11:18:33;22.80;99.90
48535;DHT22;34323;52.022;5.686;2023-07-31T11:20:58;22.80;99.90
48535;DHT22;34323;52.022;5.686;2023-07-31T11:23:24;23.00;99.90
48535;DHT22;34323;52.022;5.686;2023-07-31T11:25:50;22.80;99.90
48535;DHT22;34323;52.022;5.686;2023-07-31T11:28:17;22.80;99.90
48535;DHT22;34323;52.022;5.686;2023-07-31T11:30:44;22.70;99.90
48535;DHT22;34323;52.022;5.686;2023-07-31T11:33:11;22.50;99.90
48535;DHT22;34323;52.022;5.686;2023-07-31T11:35:47;22.60;99.90
48535;DHT22;34323;52.022;5.686;2023-07-31T11:38:27;22.70;99.90
48535;DHT22;34323;52.022;5.686;2023-07-31T11:40:57;22.80;99.90
48535;DHT22;34323;52.022;5.686;2023-07-31T11:43:23;22.60;99.90
48535;DHT22;34323;52.022;5.686;2023-07-31T11:45:55;22.70;99.90
48535;DHT22;34323;52.022;5.686;2023-07-31T11:48:28;22.70;99.90
48535;DHT22;34323;52.022;5.686;2023-07-31T11:50:59;22.50;99.90
48535;DHT22;34323;52.022;5.686;2023-07-31T11:53:38;22.50;99.90
48535;DHT22;34323;52.022;5.686;2023-07-31T11:56:07;22.80;99.90
48535;DHT22;34323;52.022;5.686;2023-07-31T11:58:34;22.80;99.90
48535;DHT22;34323;52.022;5.686;2023-07-31T12:01:00;22.80;99.90
48535;DHT22;34323;52.022;5.686;2023-07-31T12:03:26;23.10;99.90
48535;DHT22;34323;52.022;5.686;2023-07-31T12:05:55;23.10;99.90
48535;DHT22;34323;52.022;5.686;2023-07-31T12:08:22;23.30;99.90
48535;DHT22;34323;52.022;5.686;2023-07-31T12:10:50;23.30;99.90
48535;DHT22;34323;52.022;5.686;2023-07-31T12:13:24;22.40;99.90
48535;DHT22;34323;52.022;5.686;2023-07-31T12:15:59;22.40;99.90
48535;DHT22;34323;52.022;5.686;2023-07-31T12:18:27;22.30;99.90
48535;DHT22;34323;52.022;5.686;2023-07-31T12:20:57;22.10;99.90
48535;DHT22;34323;52.022;5.686;2023-07-31T12:23:29;22.40;99.90
48535;DHT22;34323;52.022;5.686;2023-07-31T12:28:45;22.30;99.90
48535;DHT22;34323;52.022;5.686;2023-07-31T12:31:18;22.40;99.90
48535;DHT22;34323;52.022;5.686;2023-07-31T12:33:45;22.30;99.90
48535;DHT22;34323;52.022;5.686;2023-07-31T12:36:16;22.60;99.90
48535;DHT22;34323;52.022;5.686;2023-07-31T12:38:44;22.60;99.90
48535;DHT22;34323;52.022;5.686;2023-07-31T12:41:09;22.50;99.90
48535;DHT22;34323;52.022;5.686;2023-07-31T12:43:40;22.80;99.90
48535;DHT22;34323;52.022;5.686;2023-07-31T12:46:06;22.70;99.90
48535;DHT22;34323;52.022;5.686;2023-07-31T12:48:37;22.20;99.90
48535;DHT22;34323;52.022;5.686;2023-07-31T12:51:03;22.10;99.90
48535;DHT22;34323;52.022;5.686;2023-07-31T12:53:29;22.20;99.90
48535;DHT22;34323;52.022;5.686;2023-07-31T12:55:55;22.50;99.90
48535;DHT22;34323;52.022;5.686;2023-07-31T12:58:22;22.70;99.90
48535;DHT22;34323;52.022;5.686;2023-07-31T13:00:47;22.90;99.90
48535;DHT22;34323;52.022;5.686;2023-07-31T13:03:13;23.00;99.90
48535;DHT22;34323;52.022;5.686;2023-07-31T13:05:39;23.20;99.90
48535;DHT22;34323;52.022;5.686;2023-07-31T13:08:04;23.30;99.90
48535;DHT22;34323;52.022;5.686;2023-07-31T13:10:30;23.30;99.90
48535;DHT22;34323;52.022;5.686;2023-07-31T13:12:56;23.40;99.90
48535;DHT22;34323;52.022;5.686;2023-07-31T13:15:21;23.30;99.90
48535;DHT22;34323;52.022;5.686;2023-07-31T13:17:47;23.50;99.90
48535;DHT22;34323;52.022;5.686;2023-07-31T13:20:13;23.30;99.90
48535;DHT22;34323;52.022;5.686;2023-07-31T13:22:38;22.90;99.90
48535;DHT22;34323;52.022;5.686;2023-07-31T13:25:04;22.80;99.90
48535;DHT22;34323;52.022;5.686;2023-07-31T13:27:30;22.90;99.90
48535;DHT22;34323;52.022;5.686;2023-07-31T13:29:56;22.70;99.90
48535;DHT22;34323;52.022;5.686;2023-07-31T13:32:22;22.90;99.90
48535;DHT22;34323;52.022;5.686;2023-07-31T13:34:48;22.50;99.90
48535;DHT22;34323;52.022;5.686;2023-07-31T13:37:14;22.40;99.90
48535;DHT22;34323;52.022;5.686;2023-07-31T13:39:39;22.60;99.90
48535;DHT22;34323;52.022;5.686;2023-07-31T13:42:06;22.50;99.90
48535;DHT22;34323;52.022;5.686;2023-07-31T13:44:34;22.50;99.90
48535;DHT22;34323;52.022;5.686;2023-07-31T13:47:00;22.70;99.90
48535;DHT22;34323;52.022;5.686;2023-07-31T13:49:26;22.20;99.90
48535;DHT22;34323;52.022;5.686;2023-07-31T13:51:51;22.30;99.90
48535;DHT22;34323;52.022;5.686;2023-07-31T13:54:17;22.60;99.90
48535;DHT22;34323;52.022;5.686;2023-07-31T13:56:43;22.60;99.90
48535;DHT22;34323;52.022;5.686;2023-07-31T13:59:08;22.80;99.90
48535;DHT22;34323;52.022;5.686;2023-07-31T14:01:34;23.10;99.90
48535;DHT22;34323;52.022;5.686;2023-07-31T14:03:59;23.40;99.90
48535;DHT22;34323;52.022;5.686;2023-07-31T14:06:25;23.40;99.90
48535;DHT22;34323;52.022;5.686;2023-07-31T14:08:50;23.30;99.90
48535;DHT22;34323;52.022;5.686;2023-07-31T14:11:16;23.30;99.90
48535;DHT22;34323;52.022;5.686;2023-07-31T14:13:41;23.10;99.90
48535;DHT22;34323;52.022;5.686;2023-07-31T14:16:07;23.10;99.90
48535;DHT22;34323;52.022;5.686;2023-07-31T14:18:33;22.50;99.90
48535;DHT22;34323;52.022;5.686;2023-07-31T14:20:58;22.50;99.90
48535;DHT22;34323;52.022;5.686;2023-07-31T14:23:24;22.50;99.90
48535;DHT22;34323;52.022;5.686;2023-07-31T14:25:49;22.60;99.90
48535;DHT22;34323;52.022;5.686;2023-07-31T14:28:15;22.50;99.90
48535;DHT22;34323;52.022;5.686;2023-07-31T14:30:40;22.50;99.90
48535;DHT22;34323;52.022;5.686;2023-07-31T14:33:06;22.30;99.90
48535;DHT22;34323;52.022;5.686;2023-07-31T14:35:32;22.30;99.90
48535;DHT22;34323;52.022;5.686;2023-07-31T14:37:57;22.60;99.90
48535;DHT22;34323;52.022;5.686;2023-07-31T14:40:23;22.40;99.90
48535;DHT22;34323;52.022;5.686;2023-07-31T14:42:48;22.30;99.90
48535;DHT22;34323;52.022;5.686;2023-07-31T14:45:14;22.30;99.90
48535;DHT22;34323;52.022;5.686;2023-07-31T14:47:39;22.30;99.90
48535;DHT22;34323;52.022;5.686;2023-07-31T14:50:05;22.70;99.90
48535;DHT22;34323;52.022;5.686;2023-07-31T14:52:31;22.70;99.90
48535;DHT22;34323;52.022;5.686;2023-07-31T14:54:56;22.70;99.90
48535;DHT22;34323;52.022;5.686;2023-07-31T14:57:22;23.00;99.90
48535;DHT22;34323;52.022;5.686;2023-07-31T14:59:48;23.20;99.90
48535;DHT22;34323;52.022;5.686;2023-07-31T15:02:14;23.20;99.90
48535;DHT22;34323;52.022;5.686;2023-07-31T15:04:40;22.70;99.90
48535;DHT22;34323;52.022;5.686;2023-07-31T15:07:05;22.60;99.90
48535;DHT22;34323;52.022;5.686;2023-07-31T15:09:31;22.60;99.90
48535;DHT22;34323;52.022;5.686;2023-07-31T15:11:57;22.60;99.90
48535;DHT22;34323;52.022;5.686;2023-07-31T15:14:23;23.00;99.90
48535;DHT22;34323;52.022;5.686;2023-07-31T15:16:49;22.50;99.90
48535;DHT22;34323;52.022;5.686;2023-07-31T15:19:15;22.50;99.90
48535;DHT22;34323;52.022;5.686;2023-07-31T15:21:41;22.10;99.90
48535;DHT22;34323;52.022;5.686;2023-07-31T15:24:06;21.90;99.90
48535;DHT22;34323;52.022;5.686;2023-07-31T15:26:32;21.70;99.90
48535;DHT22;34323;52.022;5.686;2023-07-31T15:29:06;21.90;99.90
48535;DHT22;34323;52.022;5.686;2023-07-31T15:31:39;21.80;99.90
48535;DHT22;34323;52.022;5.686;2023-07-31T15:34:05;21.70;99.90
48535;DHT22;34323;52.022;5.686;2023-07-31T15:36:31;21.70;99.90
48535;DHT22;34323;52.022;5.686;2023-07-31T15:38:56;21.90;99.90
48535;DHT22;34323;52.022;5.686;2023-07-31T15:41:22;21.80;99.90
48535;DHT22;34323;52.022;5.686;2023-07-31T15:43:48;22.00;99.90
48535;DHT22;34323;52.022;5.686;2023-07-31T15:46:14;22.30;99.90